createdAt,value
2019-04-11T00:02:02.899Z,2.71
2019-04-11T00:04:49.019Z,2.56
2019-04-11T00:07:34.991Z,2.58
2019-04-11T00:10:21.505Z,2.61
2019-04-11T00:13:17.308Z,2.50
2019-04-11T00:15:57.051Z,2.28
2019-04-11T00:18:43.429Z,2.44
2019-04-11T00:21:30.860Z,2.44
2019-04-11T00:24:18.660Z,2.36
2019-04-11T00:27:05.214Z,2.44
2019-04-11T00:29:51.412Z,2.47
2019-04-11T00:32:37.998Z,2.41
2019-04-11T00:35:24.374Z,2.34
2019-04-11T00:38:11.581Z,2.17
2019-04-11T00:40:59.702Z,2.12
2019-04-11T00:43:46.847Z,2.15
2019-04-11T00:46:34.200Z,2.04
2019-04-11T00:49:20.494Z,2.10
2019-04-11T00:52:06.678Z,2.11
2019-04-11T00:54:53.212Z,2.09
2019-04-11T00:57:39.459Z,2.02
2019-04-11T01:00:25.569Z,1.90
2019-04-11T01:03:11.781Z,1.82
2019-04-11T01:05:58.403Z,1.78
2019-04-11T01:08:44.532Z,1.69
2019-04-11T01:11:32.043Z,1.67
2019-04-11T01:14:18.506Z,1.54
2019-04-11T01:17:06.144Z,1.57
2019-04-11T01:19:53.211Z,1.58
2019-04-11T01:22:40.534Z,1.60
2019-04-11T01:25:27.119Z,1.44
2019-04-11T01:28:14.246Z,1.37
2019-04-11T01:31:09.467Z,1.38
2019-04-11T01:33:56.093Z,1.27
2019-04-11T01:36:42.953Z,1.26
2019-04-11T01:39:57.600Z,1.30
2019-04-11T01:42:43.766Z,1.30
2019-04-11T01:45:30.019Z,1.33
2019-04-11T01:48:23.928Z,1.27
2019-04-11T01:51:09.840Z,1.28
2019-04-11T01:53:57.426Z,1.22
2019-04-11T01:56:43.959Z,1.20
2019-04-11T01:59:31.157Z,1.19
2019-04-11T02:02:52.871Z,1.17
2019-04-11T02:05:39.348Z,1.15
2019-04-11T02:08:25.718Z,1.09
2019-04-11T02:11:12.935Z,1.14
2019-04-11T02:14:08.956Z,1.11
2019-04-11T02:16:47.450Z,1.06
2019-04-11T02:19:34.443Z,0.99
2019-04-11T02:22:43.359Z,0.93
2019-04-11T02:25:47.502Z,0.95
2019-04-11T02:28:33.615Z,0.97
2019-04-11T02:31:22.132Z,0.95
2019-04-11T02:34:08.604Z,0.94
2019-04-11T02:36:56.394Z,0.82
2019-04-11T02:39:43.328Z,0.88
2019-04-11T02:42:30.673Z,0.87
2019-04-11T02:45:31.122Z,0.87
2019-04-11T02:48:06.077Z,0.93
2019-04-11T02:50:54.227Z,0.98
2019-04-11T02:53:41.059Z,0.88
2019-04-11T02:56:27.831Z,0.90
2019-04-11T02:59:15.431Z,0.96
2019-04-11T03:02:01.899Z,0.90
2019-04-11T03:04:48.320Z,1.00
2019-04-11T03:07:36.025Z,1.05
2019-04-11T03:10:22.413Z,1.03
2019-04-11T03:13:08.642Z,0.94
2019-04-11T03:16:10.190Z,0.97
2019-04-11T03:18:59.315Z,0.99
2019-04-11T03:21:38.913Z,0.75
2019-04-11T03:24:24.264Z,0.72
2019-04-11T03:27:11.951Z,0.65
2019-04-11T03:30:00.234Z,0.57
2019-04-11T03:33:49.745Z,0.64
2019-04-11T03:36:27.381Z,0.61
2019-04-11T03:38:46.790Z,0.58
2019-04-11T03:41:26.727Z,0.59
2019-04-11T03:44:09.590Z,0.62
2019-04-11T03:47:07.410Z,0.65
2019-04-11T03:49:44.977Z,0.76
2019-04-11T03:52:25.643Z,0.68
2019-04-11T03:55:13.308Z,0.68
2019-04-11T03:58:01.296Z,0.63
2019-04-11T04:00:50.508Z,0.59
2019-04-11T04:03:39.248Z,0.58
2019-04-11T04:06:25.773Z,0.55
2019-04-11T04:09:13.104Z,0.48
2019-04-11T04:11:59.701Z,0.44
2019-04-11T04:15:04.561Z,0.47
2019-04-11T04:18:08.011Z,0.46
2019-04-11T04:21:08.249Z,0.51
2019-04-11T04:23:54.606Z,0.55
2019-04-11T04:26:43.062Z,0.52
2019-04-11T04:29:29.584Z,0.52
2019-04-11T04:32:16.372Z,0.65
2019-04-11T04:35:06.366Z,0.75
2019-04-11T04:37:51.731Z,0.72
2019-04-11T04:40:55.779Z,0.61
2019-04-11T04:43:31.679Z,0.44
2019-04-11T04:46:38.222Z,0.38
2019-04-11T04:49:09.032Z,0.37
2019-04-11T04:51:56.065Z,0.32
2019-04-11T04:54:44.264Z,0.33
2019-04-11T04:57:32.919Z,0.40
2019-04-11T05:00:19.400Z,0.54
2019-04-11T05:03:07.754Z,0.55
2019-04-11T05:05:55.264Z,0.63
2019-04-11T05:08:43.069Z,0.82
2019-04-11T05:11:30.570Z,1.01
2019-04-11T05:14:16.688Z,1.18
2019-04-11T05:17:02.730Z,1.26
2019-04-11T05:19:49.138Z,1.23
2019-04-11T05:22:35.292Z,1.38
2019-04-11T05:25:22.245Z,1.55
2019-04-11T05:28:09.828Z,1.65
2019-04-11T05:30:56.288Z,1.61
2019-04-11T05:33:43.475Z,1.60
2019-04-11T05:36:30.425Z,1.57
2019-04-11T05:39:18.389Z,1.60
2019-04-11T05:42:05.142Z,1.76
2019-04-11T05:44:51.529Z,1.89
2019-04-11T05:47:37.684Z,2.02
2019-04-11T05:50:28.893Z,2.15
2019-04-11T05:53:15.814Z,2.35
2019-04-11T05:56:03.744Z,2.60
2019-04-11T05:58:51.515Z,2.73
2019-04-11T06:01:44.921Z,2.78
2019-04-11T06:04:36.344Z,2.88
2019-04-11T06:07:27.679Z,3.03
2019-04-11T06:10:19.934Z,3.21
2019-04-11T06:13:18.580Z,4.13
2019-04-11T06:16:06.354Z,4.93
2019-04-11T06:19:20.940Z,5.14
2019-04-11T06:22:08.840Z,5.56
2019-04-11T06:25:20.905Z,5.23
2019-04-11T06:28:22.196Z,5.58
2019-04-11T06:31:43.260Z,5.84
2019-04-11T06:34:30.681Z,6.46
2019-04-11T06:37:36.114Z,6.36
2019-04-11T06:40:27.728Z,6.03
2019-04-11T06:43:28.139Z,5.91
2019-04-11T06:46:49.615Z,4.81
2019-04-11T06:49:42.839Z,5.29
2019-04-11T06:52:28.861Z,5.87
2019-04-11T06:55:35.048Z,6.30
2019-04-11T06:58:29.763Z,7.09
2019-04-11T07:01:22.581Z,7.91
2019-04-11T07:04:13.554Z,9.28
2019-04-11T07:07:02.110Z,8.08
2019-04-11T07:09:50.710Z,7.99
2019-04-11T07:13:00.661Z,8.45
2019-04-11T07:15:52.849Z,8.52
2019-04-11T07:18:50.842Z,8.93
2019-04-11T07:21:37.202Z,8.34
2019-04-11T07:24:32.326Z,8.58
2019-04-11T07:27:20.118Z,9.10
2019-04-11T07:30:29.500Z,8.89
2019-04-11T07:33:35.423Z,8.84
2019-04-11T07:36:57.841Z,9.13
2019-04-11T07:40:03.098Z,10.29
2019-04-11T07:43:20.892Z,11.49
2019-04-11T07:46:27.379Z,11.01
2019-04-11T07:49:17.874Z,11.38
2019-04-11T07:52:05.220Z,11.29
2019-04-11T07:54:51.900Z,10.33
2019-04-11T07:57:46.792Z,9.13
2019-04-11T08:00:55.858Z,9.86
2019-04-11T08:04:04.280Z,8.93
2019-04-11T08:07:08.797Z,9.26
2019-04-11T08:10:02.720Z,10.60
2019-04-11T08:12:49.897Z,10.36
2019-04-11T08:16:08.447Z,9.45
2019-04-11T08:19:15.305Z,9.37
2019-04-11T08:22:27.267Z,8.80
2019-04-11T08:25:39.859Z,7.79
2019-04-11T08:28:26.941Z,8.97
2019-04-11T08:31:32.627Z,9.21
2019-04-11T08:34:20.693Z,9.23
2019-04-11T08:37:45.536Z,9.49
2019-04-11T08:40:35.717Z,9.77
2019-04-11T08:43:26.917Z,10.57
2019-04-11T08:46:26.908Z,11.57
2019-04-11T08:49:29.087Z,10.19
2019-04-11T08:52:34.361Z,11.39
2019-04-11T08:55:27.410Z,11.41
2019-04-11T08:58:24.664Z,12.49
2019-04-11T09:01:13.775Z,11.14
2019-04-11T09:04:12.107Z,11.08
2019-04-11T09:07:01.541Z,11.85
2019-04-11T09:10:05.688Z,12.36
2019-04-11T09:13:05.321Z,10.66
2019-04-11T09:16:09.800Z,9.43
2019-04-11T09:19:00.715Z,10.92
2019-04-11T09:22:05.374Z,11.64
2019-04-11T09:25:12.837Z,11.75
2019-04-11T09:28:09.361Z,11.88
2019-04-11T09:31:31.651Z,11.75
2019-04-11T09:34:44.054Z,9.22
2019-04-11T09:37:33.859Z,9.42
2019-04-11T09:40:43.777Z,10.10
2019-04-11T09:43:31.800Z,9.91
2019-04-11T09:46:40.761Z,10.89
2019-04-11T09:49:36.078Z,10.41
2019-04-11T09:52:39.299Z,9.61
2019-04-11T09:55:43.797Z,9.47
2019-04-11T09:58:30.120Z,9.92
2019-04-11T10:01:47.720Z,9.90
2019-04-11T10:04:34.143Z,9.64
2019-04-11T10:07:39.901Z,9.04
2019-04-11T10:10:46.549Z,9.24
2019-04-11T10:13:51.368Z,9.32
2019-04-11T10:16:56.105Z,10.35
2019-04-11T10:20:00.705Z,9.75
2019-04-11T10:23:06.661Z,9.15
2019-04-11T10:25:59.348Z,9.42
2019-04-11T10:29:17.198Z,9.19
2019-04-11T10:32:03.899Z,9.40
2019-04-11T10:35:12.224Z,8.71
2019-04-11T10:38:00.134Z,8.75
2019-04-11T10:41:18.723Z,9.22
2019-04-11T10:44:05.551Z,8.59
2019-04-11T10:46:56.060Z,8.70
2019-04-11T10:50:20.161Z,9.06
2019-04-11T10:53:06.947Z,8.85
2019-04-11T10:56:13.915Z,8.49
2019-04-11T10:59:01.959Z,8.60
2019-04-11T11:02:06.626Z,8.73
2019-04-11T11:04:54.820Z,8.86
2019-04-11T11:07:42.700Z,8.51
2019-04-11T11:10:31.400Z,8.77
2019-04-11T11:13:36.094Z,9.23
2019-04-11T11:16:43.802Z,8.95
2019-04-11T11:19:58.333Z,8.96
2019-04-11T11:22:58.462Z,9.12
2019-04-11T11:25:49.826Z,9.31
2019-04-11T11:28:48.765Z,8.59
2019-04-11T11:31:44.873Z,8.72
2019-04-11T11:34:55.030Z,8.52
2019-04-11T11:37:59.724Z,8.56
2019-04-11T11:41:18.469Z,8.42
2019-04-11T11:44:05.648Z,8.35
2019-04-11T11:47:11.955Z,8.37
2019-04-11T11:50:02.718Z,8.05
2019-04-11T11:53:20.940Z,8.10
2019-04-11T11:56:07.529Z,8.18
2019-04-11T11:59:25.179Z,8.41
2019-04-11T12:02:18.237Z,7.98
2019-04-11T12:05:16.121Z,8.28
2019-04-11T12:08:29.361Z,8.18
2019-04-11T12:11:15.771Z,7.83
2019-04-11T12:14:20.193Z,8.11
2019-04-11T12:17:20.706Z,8.32
2019-04-11T12:20:16.530Z,8.12
2019-04-11T12:23:08.751Z,8.14
2019-04-11T12:25:55.720Z,7.90
2019-04-11T12:29:04.401Z,8.25
2019-04-11T12:31:53.948Z,8.48
2019-04-11T12:34:45.806Z,8.45
2019-04-11T12:37:37.815Z,7.97
2019-04-11T12:40:42.713Z,8.18
2019-04-11T12:44:02.226Z,8.37
2019-04-11T12:47:11.047Z,8.48
2019-04-11T12:50:25.825Z,8.64
2019-04-11T12:53:28.282Z,8.33
2019-04-11T12:56:45.568Z,8.50
2019-04-11T12:59:32.254Z,8.11
2019-04-11T13:02:38.268Z,8.57
2019-04-11T13:05:24.648Z,8.37
2019-04-11T13:08:35.428Z,8.39
2019-04-11T13:11:21.710Z,8.32
2019-04-11T13:14:33.688Z,8.34
2019-04-11T13:17:24.347Z,8.14
2019-04-11T13:20:28.466Z,8.22
2019-04-11T13:23:37.146Z,8.12
2019-04-11T13:26:48.728Z,8.20
2019-04-11T13:30:03.258Z,8.25
2019-04-11T13:32:57.528Z,8.01
2019-04-11T13:36:00.911Z,8.13
2019-04-11T13:38:51.436Z,8.22
2019-04-11T13:41:48.107Z,8.22
2019-04-11T13:44:36.406Z,8.40
2019-04-11T13:47:42.128Z,8.05
2019-04-11T13:50:32.108Z,7.98
2019-04-11T13:53:36.268Z,7.63
2019-04-11T13:56:30.027Z,7.92
2019-04-11T13:59:34.368Z,7.96
2019-04-11T14:02:29.848Z,7.73
2019-04-11T14:05:16.708Z,7.72
2019-04-11T14:08:04.403Z,7.79
2019-04-11T14:11:06.868Z,7.85
2019-04-11T14:13:54.328Z,7.69
2019-04-11T14:16:46.128Z,7.83
2019-04-11T14:19:55.028Z,7.88
2019-04-11T14:23:13.644Z,7.66
2019-04-11T14:26:35.747Z,7.68
2019-04-11T14:29:29.847Z,7.86
2019-04-11T14:32:27.880Z,7.76
2019-04-11T14:35:36.947Z,7.53
2019-04-11T14:38:23.828Z,7.71
2019-04-11T14:41:28.010Z,7.58
2019-04-11T14:44:15.971Z,7.60
2019-04-11T14:47:25.008Z,7.76
2019-04-11T14:50:11.842Z,7.56
2019-04-11T14:53:21.448Z,7.66
2019-04-11T14:56:08.664Z,7.63
2019-04-11T14:59:18.648Z,7.69
2019-04-11T15:02:12.692Z,7.63
2019-04-11T15:05:18.648Z,7.55
2019-04-11T15:08:05.628Z,7.61
2019-04-11T15:11:09.867Z,7.76
2019-04-11T15:14:03.568Z,7.74
2019-04-11T15:17:09.268Z,7.70
2019-04-11T15:23:43.849Z,7.58
2019-04-11T15:26:55.468Z,7.55
2019-04-11T15:29:45.423Z,7.58
2019-04-11T15:32:50.728Z,7.46
2019-04-11T15:35:36.618Z,7.39
2019-04-11T15:38:41.143Z,7.51
2019-04-11T15:41:28.293Z,7.55
2019-04-11T15:44:32.330Z,7.58
2019-04-11T15:47:19.769Z,7.48
2019-04-11T15:50:24.341Z,7.36
2019-04-11T15:53:13.998Z,7.47
2019-04-11T15:56:18.322Z,7.48
2019-04-11T15:59:15.898Z,7.41
2019-04-11T16:02:30.723Z,7.56
2019-04-11T16:05:44.943Z,7.30
2019-04-11T16:08:38.855Z,7.44
2019-04-11T16:11:52.503Z,7.40
2019-04-11T16:14:39.452Z,7.45
2019-04-11T16:17:57.957Z,7.43
2019-04-11T16:20:45.752Z,7.43
2019-04-11T16:23:43.920Z,7.39
2019-04-11T16:26:47.143Z,7.43
2019-04-11T16:29:56.156Z,7.40
2019-04-11T16:32:45.344Z,7.29
2019-04-11T16:35:37.636Z,7.15
2019-04-11T16:38:24.498Z,7.26
2019-04-11T16:41:28.713Z,7.24
2019-04-11T16:44:24.802Z,7.14
2019-04-11T16:47:32.857Z,7.19
2019-04-11T16:50:18.815Z,7.06
2019-04-11T16:53:05.267Z,7.10
2019-04-11T16:55:59.428Z,7.10
2019-04-11T16:59:06.983Z,6.97
2019-04-11T17:01:55.909Z,6.97
2019-04-11T17:05:00.196Z,6.97
2019-04-11T17:08:09.272Z,6.93
2019-04-11T17:11:20.759Z,6.83
2019-04-11T17:14:07.276Z,6.92
2019-04-11T17:16:53.348Z,6.89
2019-04-11T17:19:39.590Z,6.83
2019-04-11T17:22:28.327Z,6.81
2019-04-11T17:25:14.043Z,6.83
2019-04-11T17:28:00.363Z,6.73
2019-04-11T17:30:46.623Z,6.78
2019-04-11T17:33:32.692Z,6.73
2019-04-11T17:36:18.942Z,6.71
2019-04-11T17:39:07.588Z,6.72
2019-04-11T17:41:53.873Z,6.76
2019-04-11T17:44:39.990Z,6.68
2019-04-11T17:47:26.977Z,6.49
2019-04-11T17:50:14.018Z,6.60
2019-04-11T17:53:00.133Z,6.58
2019-04-11T17:55:46.503Z,6.57
2019-04-11T17:58:32.578Z,6.59
2019-04-11T18:01:18.878Z,6.49
2019-04-11T18:04:04.973Z,6.49
2019-04-11T18:06:51.162Z,6.45
2019-04-11T18:09:37.295Z,6.35
2019-04-11T18:12:26.302Z,6.44
2019-04-11T18:15:13.283Z,6.46
2019-04-11T18:17:59.323Z,6.38
2019-04-11T18:20:47.557Z,6.40
2019-04-11T18:23:35.822Z,6.33
2019-04-11T18:26:25.094Z,6.32
2019-04-11T18:29:11.268Z,6.31
2019-04-11T18:31:57.473Z,6.33
2019-04-11T18:34:46.408Z,6.27
2019-04-11T18:37:37.943Z,6.13
2019-04-11T18:40:26.092Z,6.22
2019-04-11T18:43:15.999Z,6.27
2019-04-11T18:46:00.663Z,5.99
2019-04-11T18:48:46.843Z,6.08
2019-04-11T18:51:35.135Z,6.07
2019-04-11T18:54:21.479Z,6.05
2019-04-11T18:57:09.867Z,6.03
2019-04-11T18:59:56.224Z,6.01
2019-04-11T19:02:42.590Z,6.03
2019-04-11T19:05:29.383Z,6.09
2019-04-11T19:08:15.917Z,6.08
2019-04-11T19:11:02.174Z,6.07
2019-04-11T19:13:48.502Z,6.00
2019-04-11T19:16:37.043Z,5.84
2019-04-11T19:19:23.093Z,5.82
2019-04-11T19:22:09.174Z,5.88
2019-04-11T19:24:56.223Z,5.81
2019-04-11T19:27:42.433Z,5.76
2019-04-11T19:30:28.493Z,5.71
2019-04-11T19:33:14.607Z,5.77
2019-04-11T19:36:00.862Z,5.70
2019-04-11T19:38:46.895Z,5.73
2019-04-11T19:41:32.933Z,5.69
2019-04-11T19:44:19.956Z,5.61
2019-04-11T19:47:06.453Z,5.67
2019-04-11T19:49:52.493Z,5.51
2019-04-11T19:52:45.346Z,5.51
2019-04-11T19:55:52.239Z,5.53
2019-04-11T19:58:37.668Z,5.54
2019-04-11T20:01:23.803Z,5.59
2019-04-11T20:04:11.567Z,5.56
2019-04-11T20:06:58.119Z,5.51
2019-04-11T20:09:44.479Z,5.47
2019-04-11T20:12:30.758Z,5.44
2019-04-11T20:15:16.788Z,5.42
2019-04-11T20:18:02.908Z,5.45
2019-04-11T20:20:52.310Z,5.54
2019-04-11T20:23:41.478Z,5.52
2019-04-11T20:26:27.098Z,5.56
2019-04-11T20:29:15.043Z,5.46
2019-04-11T20:32:01.013Z,5.56
2019-04-11T20:34:47.149Z,5.47
2019-04-11T20:37:39.228Z,5.57
2019-04-11T20:40:22.499Z,5.58
2019-04-11T20:43:10.170Z,5.58
2019-04-11T20:45:57.933Z,5.58
2019-04-11T20:48:44.628Z,5.43
2019-04-11T20:51:31.044Z,5.45
2019-04-11T20:54:17.048Z,5.52
2019-04-11T20:57:03.175Z,5.40
2019-04-11T20:59:49.428Z,5.43
2019-04-11T21:02:35.468Z,5.38
2019-04-11T21:05:21.772Z,5.36
2019-04-11T21:08:07.963Z,5.35
2019-04-11T21:10:54.123Z,5.38
2019-04-11T21:13:40.308Z,5.29
2019-04-11T21:16:26.419Z,5.29
2019-04-11T21:19:12.482Z,5.28
2019-04-11T21:21:58.803Z,5.22
2019-04-11T21:24:44.965Z,5.25
2019-04-11T21:27:31.167Z,5.21
2019-04-11T21:30:17.463Z,5.24
2019-04-11T21:33:04.219Z,5.25
2019-04-11T21:35:50.628Z,5.26
2019-04-11T21:38:36.903Z,5.33
2019-04-11T21:41:23.018Z,5.29
2019-04-11T21:44:09.258Z,5.30
2019-04-11T21:46:55.368Z,5.25
2019-04-11T21:49:41.405Z,5.22
2019-04-11T21:52:27.668Z,5.22
2019-04-11T21:55:16.108Z,5.22
2019-04-11T21:58:02.987Z,5.23
2019-04-11T22:00:56.100Z,5.21
2019-04-11T22:03:42.573Z,5.21
2019-04-11T22:06:30.558Z,5.17
2019-04-11T22:09:17.582Z,5.20
2019-04-11T22:12:07.915Z,5.14
2019-04-11T22:14:52.098Z,5.11
2019-04-11T22:17:38.248Z,5.10
2019-04-11T22:20:24.282Z,5.05
2019-04-11T22:23:10.563Z,5.06
2019-04-11T22:25:57.093Z,4.98
2019-04-11T22:28:43.551Z,5.05
2019-04-11T22:31:30.169Z,4.99
2019-04-11T22:34:44.729Z,5.01
2019-04-11T22:37:31.142Z,5.02
2019-04-11T22:40:17.404Z,5.01
2019-04-11T22:43:07.444Z,5.08
2019-04-11T22:45:51.772Z,4.98
2019-04-11T22:48:38.992Z,4.98
2019-04-11T22:51:25.923Z,4.88
2019-04-11T22:54:13.163Z,4.94
2019-04-11T22:57:00.418Z,4.97
2019-04-11T22:59:46.631Z,4.91
2019-04-11T23:02:50.939Z,4.90
2019-04-11T23:05:37.342Z,4.90
2019-04-11T23:08:23.515Z,4.87
2019-04-11T23:11:09.634Z,4.90
2019-04-11T23:13:55.832Z,4.88
2019-04-11T23:16:44.159Z,4.89
2019-04-11T23:19:30.028Z,4.74
2019-04-11T23:22:19.228Z,4.77
2019-04-11T23:25:05.557Z,4.77
2019-04-11T23:27:51.488Z,4.77
2019-04-11T23:30:37.773Z,4.77
2019-04-11T23:33:23.758Z,4.72
2019-04-11T23:36:09.933Z,4.71
2019-04-11T23:38:56.198Z,4.70
2019-04-11T23:41:43.066Z,4.70
2019-04-11T23:44:29.277Z,4.70
2019-04-11T23:47:16.032Z,4.70
2019-04-11T23:50:02.498Z,4.68
2019-04-11T23:52:48.712Z,4.57
2019-04-11T23:55:35.332Z,4.62
2019-04-11T23:58:21.852Z,4.60
